Terminal Aerodrome Forecast
Issued by NWS

Home | Current Version | Previous Version | Text Only | Print | Product List | Glossary On
Versions: 1 2 3 4 5 6 7 8 9 10 11 12 13 14 15 16 17 18 19 20 21 22 23 24 25 26 27 28 29 30 31 32 33 34 35
000
FTAK31 PANC 191315 AAA
TAFADL
TAF AMD
PADL 191315Z 1913/2012 08010KT P6SM -SHRA BKN040 OVC050
      TEMPO 1913/1916 FEW007 BKN025
     FM191700 15012KT P6SM -SHSNRA SCT007 BKN015 OVC025
     FM200000 19018G28KT P6SM -SHSN BKN030 BKN050
     FM200800 20008KT 5SM BR BKN050
      AMD LTD TO CLD VIS AND WIND TIL 191600=

USA.gov is the U.S. government's official web portal to all federal, state and local government web resources and services.